Time;durP1;ratioP1;P1;durP2;ratioP2;P2;SDS_P1;SDS_P2;PMS_P1;PMS_P2;Temp;Humidity;BMP_temperature;BMP_pressure;BME280_temperature;BME280_humidity;BME280_pressure;Samples;Min_cycle;Max_cycle;Signal;HPM_P1;HPM_P2
2022/06/18 00:00:53;;;;;;;1.95;1.80;;;;;;;22.26;45.37;94121.16;5029274;28;20044;-88
2022/06/18 00:03:18;;;;;;;2.38;2.17;;;;;;;22.25;45.56;94131.41;4992762;28;20056;-89
2022/06/18 00:05:45;;;;;;;2.63;2.13;;;;;;;22.23;45.52;94125.69;4997545;28;20040;-91
2022/06/18 00:08:17;;;;;;;2.20;2.00;;;;;;;22.23;45.21;94114.66;4992148;28;20385;-89
2022/06/18 00:10:43;;;;;;;2.95;2.33;;;;;;;22.23;45.33;94123.69;4994953;28;20057;-88
2022/06/18 00:16:02;;;;;;;2.88;1.98;;;;;;;22.25;45.53;94116.91;5024359;28;20568;-88
2022/06/18 00:18:27;;;;;;;2.03;1.83;;;;;;;22.20;45.32;94132.97;4993669;28;20033;-89
2022/06/18 00:20:53;;;;;;;2.35;2.15;;;;;;;22.21;45.43;94130.97;5005165;28;20033;-90
2022/06/18 00:23:18;;;;;;;2.17;1.98;;;;;;;22.23;45.72;94122.94;4993097;28;20384;-89
2022/06/18 00:25:48;;;;;;;2.30;2.10;;;;;;;22.21;45.63;94126.19;5010337;28;20037;-89
2022/06/18 00:28:20;;;;;;;3.88;2.30;;;;;;;22.21;45.52;94125.44;4993601;28;20053;-89
2022/06/18 00:30:45;;;;;;;2.33;2.13;;;;;;;22.20;45.45;94110.94;5029531;28;20043;-92
2022/06/18 00:33:11;;;;;;;2.25;2.05;;;;;;;22.22;45.35;94113.19;4992754;28;20037;-88
2022/06/18 00:35:36;;;;;;;1.90;1.70;;;;;;;22.21;45.64;94114.44;5026010;28;20056;-90
2022/06/18 00:38:03;;;;;;;1.90;1.77;;;;;;;22.21;45.33;94122.69;5009491;28;20480;-89
2022/06/18 00:40:35;;;;;;;2.40;2.20;;;;;;;22.20;45.39;94113.69;4993864;28;20124;-89
2022/06/18 00:43:05;;;;;;;2.15;1.95;;;;;;;22.21;45.38;94122.69;5010455;28;20443;-88
2022/06/18 00:45:30;;;;;;;2.70;2.50;;;;;;;22.21;45.41;94123.44;5009971;28;20029;-89
2022/06/18 00:48:06;;;;;;;1.70;1.60;;;;;;;22.19;45.42;94112.19;4995774;28;20128;-90
2022/06/18 00:50:38;;;;;;;2.10;1.90;;;;;;;22.19;45.52;94111.44;5011375;28;20033;-92
2022/06/18 00:53:09;;;;;;;2.05;1.80;;;;;;;22.19;45.67;94111.44;5016691;28;20057;-89
2022/06/18 00:55:37;;;;;;;2.10;1.90;;;;;;;22.18;45.50;94124.47;5001113;28;20040;-90
2022/06/18 00:58:06;;;;;;;2.35;1.90;;;;;;;22.19;45.59;94120.47;5050253;28;20041;-89
2022/06/18 01:00:37;;;;;;;1.92;1.73;;;;;;;22.19;45.56;94122.47;5047075;28;20043;-91
2022/06/18 01:03:03;;;;;;;1.70;1.60;;;;;;;22.19;45.36;94119.72;4981642;28;20045;-86
2022/06/18 01:05:38;;;;;;;2.80;1.98;;;;;;;22.17;45.44;94123.00;4997212;28;20100;-88
2022/06/18 01:08:18;;;;;;;1.90;1.75;;;;;;;22.17;45.73;94109.22;4996789;28;20518;-90
2022/06/18 01:10:51;;;;;;;2.22;2.03;;;;;;;22.17;45.21;94106.47;4981097;28;20454;-88
2022/06/18 01:13:18;;;;;;;1.80;1.70;;;;;;;22.16;45.49;94113.22;4996458;28;20381;-88
2022/06/18 01:15:44;;;;;;;2.28;2.08;;;;;;;22.17;45.59;94109.22;4981222;28;20440;-89
2022/06/18 01:18:11;;;;;;;2.03;1.83;;;;;;;22.18;45.35;94109.97;4996115;28;20048;-89
2022/06/18 01:20:40;;;;;;;2.08;1.88;;;;;;;22.16;45.41;94104.97;5010138;28;20544;-90
2022/06/18 01:23:14;;;;;;;1.90;1.63;;;;;;;22.16;45.46;94098.72;5010860;28;20042;-89
2022/06/18 01:25:39;;;;;;;2.17;1.98;;;;;;;22.15;45.44;94099.97;5013458;28;20127;-89
2022/06/18 01:28:05;;;;;;;1.67;1.58;;;;;;;22.17;45.37;94105.72;4992928;28;20445;-89
2022/06/18 01:30:33;;;;;;;1.88;1.70;;;;;;;22.15;45.26;94103.47;4993924;28;20113;-90
2022/06/18 01:32:59;;;;;;;2.03;1.77;;;;;;;22.16;45.26;94088.44;5019535;28;20043;-89
2022/06/18 01:35:24;;;;;;;1.77;1.63;;;;;;;22.16;45.20;94098.72;5015958;28;20343;-90
2022/06/18 01:37:50;;;;;;;1.95;1.80;;;;;;;22.15;45.48;94086.22;5016639;28;20040;-91
2022/06/18 01:40:25;;;;;;;2.03;1.73;;;;;;;22.14;45.62;94096.47;5015862;28;20470;-88
2022/06/18 01:42:50;;;;;;;2.78;1.80;;;;;;;22.16;45.51;94090.47;5016661;28;20064;-88
2022/06/18 01:45:21;;;;;;;2.00;1.80;;;;;;;22.14;45.42;94090.22;5015141;28;20103;-90
2022/06/18 01:48:03;;;;;;;2.33;1.75;;;;;;;22.15;45.44;94086.97;5000419;28;20048;-89
2022/06/18 01:50:40;;;;;;;1.98;1.83;;;;;;;22.14;45.71;94082.72;5031828;28;20045;-89
2022/06/18 01:53:14;;;;;;;1.40;1.30;;;;;;;22.15;45.60;94081.44;5016722;28;20064;-90
2022/06/18 01:56:01;;;;;;;1.75;1.58;;;;;;;22.14;45.44;94079.22;4999898;28;20518;-89
2022/06/18 01:58:30;;;;;;;2.03;1.70;;;;;;;22.13;45.40;94063.94;5000649;28;20514;-89
2022/06/18 02:00:57;;;;;;;1.80;1.70;;;;;;;22.12;45.57;94063.22;4994653;28;20086;-89
2022/06/18 02:03:23;;;;;;;1.50;1.40;;;;;;;22.12;45.53;94060.44;4976514;28;20500;-91
2022/06/18 02:05:48;;;;;;;1.83;1.70;;;;;;;22.12;45.29;94063.22;5012302;28;20044;-89
2022/06/18 02:08:15;;;;;;;1.95;1.85;;;;;;;22.11;45.46;94058.22;5012028;28;20038;-88
2022/06/18 02:10:47;;;;;;;1.90;1.70;;;;;;;22.13;45.31;94072.22;4994341;28;20326;-92
2022/06/18 02:13:13;;;;;;;1.88;1.73;;;;;;;22.13;45.62;94058.44;5012137;28;20048;-90
2022/06/18 02:15:40;;;;;;;1.85;1.70;;;;;;;22.12;45.49;94057.69;5012388;28;20442;-88
2022/06/18 02:18:07;;;;;;;1.95;1.83;;;;;;;22.13;45.42;94061.94;5011560;28;20045;-89
2022/06/18 02:20:36;;;;;;;1.52;1.42;;;;;;;22.12;45.49;94062.47;4995634;28;20052;-89
2022/06/18 02:23:02;;;;;;;1.77;1.67;;;;;;;22.12;45.66;94060.44;4995827;28;20041;-90
2022/06/18 02:25:29;;;;;;;1.58;1.30;;;;;;;22.11;45.45;94058.97;4995756;28;20454;-89
2022/06/18 02:27:56;;;;;;;1.88;1.67;;;;;;;22.11;45.38;94050.69;5012460;28;20026;-88
2022/06/18 02:30:25;;;;;;;1.40;1.27;;;;;;;22.10;45.52;94043.72;5011485;28;20033;-88
2022/06/18 02:32:55;;;;;;;1.73;1.60;;;;;;;22.11;45.53;94047.22;4998210;28;20043;-91
2022/06/18 02:35:22;;;;;;;1.33;1.23;;;;;;;22.12;45.65;94049.44;5014484;28;20582;-89
2022/06/18 02:37:47;;;;;;;1.75;1.55;;;;;;;22.11;45.54;94047.94;5015622;28;20036;-88
2022/06/18 02:40:21;;;;;;;1.60;1.30;;;;;;;22.09;45.43;94053.22;5030832;28;20353;-89
2022/06/18 02:42:47;;;;;;;1.83;1.50;;;;;;;22.12;45.71;94048.69;4999984;28;20056;-90
2022/06/18 02:45:12;;;;;;;1.58;1.48;;;;;;;22.11;45.69;94060.97;5014234;28;20510;-89
2022/06/18 02:47:38;;;;;;;1.60;1.50;;;;;;;22.11;45.52;94055.47;5015375;28;20029;-89
2022/06/18 02:50:06;;;;;;;1.35;1.25;;;;;;;22.08;45.49;94051.75;4991623;28;20042;-88
2022/06/18 02:52:34;;;;;;;1.40;1.30;;;;;;;22.11;45.20;94052.72;4992619;28;20092;-89
2022/06/18 02:55:26;;;;;;;1.58;1.30;;;;;;;22.09;45.36;94058.75;4995169;28;20045;-89
2022/06/18 02:57:55;;;;;;;1.40;1.30;;;;;;;22.10;45.60;94054.72;5011634;28;20121;-88
2022/06/18 03:00:20;;;;;;;1.80;1.70;;;;;;;22.09;45.55;94052.47;5010911;28;20034;-89
2022/06/18 03:02:46;;;;;;;2.00;1.80;;;;;;;22.07;45.54;94047.53;4989202;28;20396;-89
2022/06/18 03:05:21;;;;;;;1.42;1.30;;;;;;;22.08;45.64;94046.25;5011243;28;20029;-88
2022/06/18 03:07:46;;;;;;;1.70;1.25;;;;;;;22.07;45.60;94039.25;5028080;28;20488;-88
2022/06/18 03:12:55;;;;;;;1.50;1.40;;;;;;;22.08;45.85;94053.78;5006227;28;20048;-89
2022/06/18 03:15:20;;;;;;;1.45;1.20;;;;;;;22.06;45.68;94048.78;5027317;28;20034;-92
2022/06/18 03:17:46;;;;;;;1.83;1.45;;;;;;;22.08;45.81;94051.03;4995016;28;20033;-91
2022/06/18 03:20:13;;;;;;;1.48;1.38;;;;;;;22.08;45.77;94049.00;4994516;28;20041;-90
2022/06/18 03:22:38;;;;;;;2.00;1.70;;;;;;;22.08;45.67;94056.53;5010953;28;20030;-92
2022/06/18 03:25:04;;;;;;;1.52;1.42;;;;;;;22.09;45.65;94055.97;5021819;28;20084;-90
2022/06/18 03:27:30;;;;;;;2.28;1.60;;;;;;;22.10;45.51;94046.47;5012177;28;20045;-88
2022/06/18 03:29:55;;;;;;;141.48;105.97;;;;;;;22.10;45.58;94051.97;5027803;28;20615;-89
2022/06/18 03:32:21;;;;;;;16.65;11.73;;;;;;;22.13;45.59;94050.94;5007873;28;20030;-88
2022/06/18 03:34:46;;;;;;;2.90;2.42;;;;;;;22.10;45.48;94054.72;4989562;28;20042;-89
2022/06/18 03:37:11;;;;;;;3.35;2.63;;;;;;;22.13;45.49;94044.69;4998240;28;20041;-88
2022/06/18 03:39:37;;;;;;;2.60;2.10;;;;;;;22.12;45.45;94046.69;5008137;28;20042;-90
2022/06/18 03:42:03;;;;;;;2.28;2.05;;;;;;;22.11;45.59;94050.69;5008450;28;20040;-89
2022/06/18 03:44:28;;;;;;;2.45;2.25;;;;;;;22.09;45.86;94053.22;4991477;28;20030;-90
2022/06/18 03:46:54;;;;;;;3.10;2.80;;;;;;;22.07;45.49;94044.03;5026296;28;20038;-89
2022/06/18 03:49:23;;;;;;;1.70;1.50;;;;;;;22.08;45.83;94051.03;5030212;28;20045;-90
2022/06/18 03:51:49;;;;;;;1.75;1.60;;;;;;;22.07;45.71;94055.78;5030132;28;20052;-89
2022/06/18 03:54:14;;;;;;;5.38;1.95;;;;;;;22.07;45.69;94057.78;5017063;28;20495;-88
2022/06/18 03:56:39;;;;;;;3.13;1.50;;;;;;;22.07;45.52;94055.78;5019323;28;20041;-89
2022/06/18 03:59:05;;;;;;;3.33;2.47;;;;;;;22.10;45.60;94054.72;5011758;28;20045;-87
2022/06/18 04:01:32;;;;;;;26.40;19.45;;;;;;;22.08;45.60;94048.28;5027618;28;20033;-90
2022/06/18 04:03:57;;;;;;;165.23;131.88;;;;;;;22.10;45.80;94045.72;4998927;28;20164;-90
2022/06/18 04:06:23;;;;;;;12.40;9.05;;;;;;;22.18;45.71;94046.63;5014548;28;20037;-93
2022/06/18 04:08:49;;;;;;;4.45;2.38;;;;;;;22.22;45.54;94047.06;5015409;28;20036;-88
2022/06/18 04:11:15;;;;;;;3.05;2.35;;;;;;;22.21;45.43;94045.59;5013691;28;20479;-88
2022/06/18 04:13:40;;;;;;;2.03;1.77;;;;;;;22.20;45.70;94049.59;5031057;28;20501;-88
2022/06/18 04:16:06;;;;;;;24.25;21.90;;;;;;;22.19;45.73;94046.09;5031365;28;20037;-91
2022/06/18 04:18:32;;;;;;;106.00;88.45;;;;;;;22.21;45.61;94046.34;5032077;28;20533;-90
2022/06/18 04:20:57;;;;;;;55.97;48.95;;;;;;;22.21;46.04;94048.34;5049237;28;20495;-90
2022/06/18 04:23:22;;;;;;;8.52;6.15;;;;;;;22.21;45.29;94035.31;5046417;28;20503;-93
2022/06/18 04:25:48;;;;;;;4.28;3.45;;;;;;;22.25;45.49;94042.53;5001676;28;20052;-89
2022/06/18 04:28:14;;;;;;;3.55;2.80;;;;;;;22.23;45.37;94037.56;5016383;28;20060;-90
2022/06/18 04:30:40;;;;;;;3.33;2.58;;;;;;;22.22;45.46;94045.06;5018376;28;20032;-89
2022/06/18 04:33:05;;;;;;;3.25;2.88;;;;;;;22.23;45.43;94043.81;5017355;28;20055;-89
2022/06/18 04:35:31;;;;;;;5.90;3.22;;;;;;;22.24;45.27;94039.03;5032287;28;20063;-89
2022/06/18 04:37:56;;;;;;;4.60;3.13;;;;;;;22.25;45.46;94045.28;5034571;28;20048;-86
2022/06/18 04:40:26;;;;;;;74.80;33.92;;;;;;;22.19;45.48;94039.84;5034096;28;20044;-87
2022/06/18 04:42:51;;;;;;;6.05;4.78;;;;;;;22.19;45.41;94032.34;5033279;28;20116;-87
2022/06/18 04:45:16;;;;;;;83.80;24.23;;;;;;;22.19;45.46;94048.13;5033005;28;20045;-88
2022/06/18 04:47:42;;;;;;;77.72;28.50;;;;;;;22.21;45.36;94043.56;5049843;28;20072;-87
2022/06/18 04:50:14;;;;;;;41.35;18.83;;;;;;;22.15;45.38;94047.66;5018956;28;20041;-91
2022/06/18 04:52:40;;;;;;;59.42;26.30;;;;;;;22.15;45.52;94044.91;5020412;28;20041;-86
2022/06/18 04:55:05;;;;;;;60.90;25.50;;;;;;;22.08;45.16;94042.75;5052890;28;20033;-87
2022/06/18 04:57:31;;;;;;;47.10;22.48;;;;;;;22.14;45.47;94035.16;5016874;28;20107;-90
2022/06/18 04:59:56;;;;;;;53.35;22.60;;;;;;;22.15;45.48;94036.66;5013581;28;20381;-90
2022/06/18 05:02:23;;;;;;;41.70;18.77;;;;;;;22.16;45.26;94046.41;4999792;28;20435;-90
2022/06/18 05:04:49;;;;;;;43.63;18.30;;;;;;;22.15;45.15;94047.66;4994536;28;20041;-91
2022/06/18 05:07:14;;;;;;;36.20;16.98;;;;;;;22.11;45.16;94036.94;5009771;28;20037;-91
2022/06/18 05:09:40;;;;;;;32.40;17.50;;;;;;;22.13;44.99;94048.19;4993394;28;20033;-90
2022/06/18 05:12:05;;;;;;;15.73;8.45;;;;;;;22.15;45.73;94047.66;5025750;28;20033;-89
2022/06/18 05:14:31;;;;;;;11.65;6.20;;;;;;;22.16;46.04;94049.16;4993827;28;20045;-91
2022/06/18 05:16:57;;;;;;;8.88;5.80;;;;;;;21.97;46.36;94038.09;5006343;28;20108;-91
2022/06/18 05:19:24;;;;;;;9.52;5.32;;;;;;;21.92;46.08;94043.66;5023407;28;20038;-92
2022/06/18 05:21:50;;;;;;;7.85;5.53;;;;;;;21.97;45.79;94042.84;5010649;28;20123;-91
2022/06/18 05:24:15;;;;;;;9.32;5.47;;;;;;;21.83;46.88;94055.78;4993445;28;20154;-91
2022/06/18 05:26:43;;;;;;;8.73;4.95;;;;;;;21.81;47.14;94056.31;5027005;28;20030;-90
2022/06/18 05:29:10;;;;;;;8.55;5.03;;;;;;;21.80;47.34;94049.31;5026307;28;20048;-91
2022/06/18 05:31:35;;;;;;;5.18;4.60;;;;;;;21.78;47.20;94048.34;5027481;28;20087;-92
2022/06/18 05:34:01;;;;;;;5.93;4.93;;;;;;;21.76;47.10;94043.34;5013409;28;20041;-92
2022/06/18 05:36:26;;;;;;;9.32;5.13;;;;;;;21.74;47.31;94042.38;4997952;28;20034;-93
2022/06/18 05:38:53;;;;;;;6.28;4.65;;;;;;;21.80;46.76;94049.31;5014458;28;20487;-91
2022/06/18 05:41:18;;;;;;;13.10;5.78;;;;;;;21.84;46.84;94047.00;5014293;28;20117;-91
2022/06/18 05:43:43;;;;;;;6.78;4.38;;;;;;;21.79;46.97;94045.06;4997844;28;20030;-91
2022/06/18 05:46:11;;;;;;;9.65;5.47;;;;;;;21.80;47.20;94043.81;4997686;28;20053;-91
2022/06/18 05:48:37;;;;;;;10.80;6.80;;;;;;;21.86;47.08;94054.75;4996252;28;20041;-90
2022/06/18 05:51:03;;;;;;;14.85;8.30;;;;;;;21.89;47.14;94054.44;4985601;28;20535;-90
2022/06/18 05:53:29;;;;;;;20.63;11.18;;;;;;;21.93;47.10;94050.66;4991954;28;20558;-91
2022/06/18 05:55:54;;;;;;;42.33;13.82;;;;;;;21.97;46.73;94054.63;4960788;28;20038;-91
2022/06/18 05:58:20;;;;;;;25.88;10.98;;;;;;;22.02;47.24;94053.84;4959665;28;20070;-89
2022/06/18 06:00:45;;;;;;;18.98;8.80;;;;;;;22.08;46.81;94059.28;4960428;28;20365;-90
2022/06/18 06:03:10;;;;;;;18.63;8.48;;;;;;;22.06;46.49;94059.81;4975767;28;20042;-91
2022/06/18 06:05:36;;;;;;;14.93;8.23;;;;;;;22.03;46.45;94058.09;4960750;28;20103;-94
2022/06/18 06:08:02;;;;;;;19.23;8.52;;;;;;;22.10;46.42;94059.47;4976034;28;20038;-91
2022/06/18 06:13:15;;;;;;;22.85;14.32;;;;;;;22.12;45.87;94052.19;4995831;28;20041;-91
2022/06/18 06:15:40;;;;;;;25.23;18.13;;;;;;;22.17;45.96;94056.16;4960644;28;20041;-91
2022/06/18 06:18:06;;;;;;;34.40;23.20;;;;;;;22.21;45.67;94059.34;4975865;28;20034;-90
2022/06/18 06:20:33;;;;;;;26.90;15.90;;;;;;;22.18;45.85;94060.41;4975502;28;20034;-92
2022/06/18 06:22:59;;;;;;;28.38;17.25;;;;;;;22.23;45.70;94063.09;4993262;28;20062;-90
2022/06/18 06:25:24;;;;;;;29.52;17.30;;;;;;;22.27;45.56;94062.78;4977679;28;20075;-91
2022/06/18 06:27:50;;;;;;;43.67;27.75;;;;;;;22.28;45.70;94069.03;4993644;28;20054;-90
2022/06/18 06:30:18;;;;;;;19.15;13.95;;;;;;;22.20;45.58;94066.88;4977390;28;20089;-91
2022/06/18 06:32:44;;;;;;;19.33;14.43;;;;;;;22.22;45.67;94069.84;4976328;28;20038;-91
2022/06/18 06:35:10;;;;;;;23.17;15.02;;;;;;;22.23;45.53;94076.09;4980352;28;20128;-93
2022/06/18 06:37:35;;;;;;;22.63;13.95;;;;;;;22.30;45.36;94067.22;4992628;28;20472;-94
2022/06/18 06:40:01;;;;;;;31.27;16.42;;;;;;;22.25;45.22;94076.34;4976703;28;20161;-92
2022/06/18 06:42:27;;;;;;;21.90;14.50;;;;;;;22.32;45.06;94066.72;4992049;28;20037;-92
2022/06/18 06:44:54;;;;;;;28.33;16.05;;;;;;;22.28;45.06;94082.81;4975270;28;20041;-91
2022/06/18 06:47:19;;;;;;;25.23;14.32;;;;;;;22.29;44.99;94078.81;4975693;28;20045;-92
2022/06/18 06:49:45;;;;;;;22.92;13.75;;;;;;;22.23;45.01;94065.09;4985539;28;20042;-92
2022/06/18 06:52:10;;;;;;;23.95;14.25;;;;;;;22.26;45.23;94069.56;4955713;28;20046;-91
2022/06/18 06:54:35;;;;;;;27.05;14.75;;;;;;;22.25;45.03;94076.34;4971932;28;20315;-92
2022/06/18 06:59:45;;;;;;;21.90;12.88;;;;;;;22.32;45.03;94070.22;4999923;28;20408;-94
2022/06/18 07:02:20;;;;;;;20.55;13.35;;;;;;;22.30;45.23;94061.72;4971972;28;20038;-92
2022/06/18 07:04:46;;;;;;;27.10;13.98;;;;;;;22.29;45.13;94062.28;4978431;28;20048;-92
2022/06/18 07:07:12;;;;;;;17.40;12.00;;;;;;;22.33;45.41;94060.69;5008805;28;20030;-93
2022/06/18 07:09:37;;;;;;;19.27;12.20;;;;;;;22.36;45.34;94058.91;5031610;28;20067;-92
2022/06/18 07:12:03;;;;;;;21.90;11.43;;;;;;;22.29;45.71;94057.50;5014689;28;20053;-92
2022/06/18 07:14:29;;;;;;;16.45;10.32;;;;;;;22.35;45.22;94065.69;4995539;28;20038;-92
2022/06/18 07:16:54;;;;;;;17.00;10.88;;;;;;;22.31;45.21;94063.22;5015155;28;20033;-94
2022/06/18 07:19:20;;;;;;;20.63;9.90;;;;;;;22.34;45.11;94061.44;5013713;28;20042;-91
2022/06/18 07:21:46;;;;;;;27.20;12.77;;;;;;;22.32;45.39;94063.97;4996481;28;20104;-95
2022/06/18 07:24:11;;;;;;;19.63;11.93;;;;;;;22.37;45.21;94063.16;4989643;28;20038;-93
2022/06/18 07:26:36;;;;;;;15.60;10.35;;;;;;;22.37;45.63;94054.88;4995739;28;20484;-93
2022/06/18 07:29:02;;;;;;;18.98;10.85;;;;;;;22.38;45.51;94050.88;5010333;28;20127;-91
2022/06/18 07:31:29;;;;;;;23.52;11.18;;;;;;;22.37;45.44;94057.63;4994667;28;20033;-92
2022/06/18 07:33:57;;;;;;;22.65;11.75;;;;;;;22.38;45.29;94051.63;4995224;28;20128;-91
2022/06/18 07:36:22;;;;;;;18.83;10.38;;;;;;;22.36;45.25;94051.38;5019472;28;20069;-91
2022/06/18 07:38:49;;;;;;;27.42;10.25;;;;;;;22.34;45.22;94051.16;5025640;28;20060;-92
2022/06/18 07:41:18;;;;;;;14.07;7.75;;;;;;;22.27;44.68;94048.28;5014370;28;20046;-93
2022/06/18 07:43:47;;;;;;;17.02;7.53;;;;;;;22.25;44.84;94046.03;5028069;28;20034;-92
2022/06/18 07:46:13;;;;;;;9.15;6.15;;;;;;;22.25;44.40;94048.06;5023004;28;20056;-92
2022/06/18 07:48:39;;;;;;;76.32;53.97;;;;;;;22.29;44.83;94049.25;5012669;28;20064;-91
2022/06/18 07:51:05;;;;;;;13.25;9.50;;;;;;;22.31;44.34;94043.94;4993710;28;20100;-91
2022/06/18 07:53:30;;;;;;;8.93;8.07;;;;;;;22.34;44.33;94042.91;4996108;28;20187;-90
2022/06/18 07:55:56;;;;;;;20.60;8.75;;;;;;;22.29;44.72;94040.97;4990125;28;20501;-93
2022/06/18 07:58:22;;;;;;;10.60;8.60;;;;;;;22.27;45.10;94038.00;5017271;28;20586;-91
2022/06/18 08:00:47;;;;;;;9.23;7.95;;;;;;;22.32;44.42;94034.41;4995770;28;20044;-92
2022/06/18 08:03:14;;;;;;;9.05;6.20;;;;;;;22.30;44.28;94028.66;4995735;28;20052;-92
2022/06/18 08:05:39;;;;;;;8.43;7.55;;;;;;;22.36;44.39;94037.59;4994058;28;20041;-92
2022/06/18 08:08:05;;;;;;;6.68;5.97;;;;;;;22.37;44.31;94044.59;4993721;28;20080;-91
2022/06/18 08:10:35;;;;;;;7.50;5.53;;;;;;;22.35;44.52;94033.38;4996730;28;20092;-93
2022/06/18 08:13:00;;;;;;;7.20;6.28;;;;;;;22.32;44.87;94030.91;4989848;28;20124;-91
2022/06/18 08:15:26;;;;;;;26.33;22.40;;;;;;;22.37;44.14;94033.59;4994061;28;20041;-92
2022/06/18 08:17:51;;;;;;;10.68;9.43;;;;;;;22.39;44.62;94033.81;5013130;28;20045;-91
2022/06/18 08:20:17;;;;;;;20.35;18.17;;;;;;;22.36;44.62;94034.84;4995641;28;20052;-92
2022/06/18 08:22:44;;;;;;;14.15;9.35;;;;;;;22.37;44.49;94033.59;5008628;28;20038;-92
2022/06/18 08:25:10;;;;;;;10.63;6.32;;;;;;;22.38;44.71;94034.34;4973758;28;20040;-93
2022/06/18 08:27:36;;;;;;;7.90;5.90;;;;;;;22.33;44.23;94027.63;5027854;28;20083;-93
2022/06/18 08:30:01;;;;;;;9.25;6.93;;;;;;;22.42;44.24;94027.28;5020549;28;20120;-91
2022/06/18 08:32:27;;;;;;;6.55;5.95;;;;;;;22.38;43.89;94029.56;5011244;28;20038;-93
2022/06/18 08:34:52;;;;;;;8.45;6.20;;;;;;;22.38;44.00;94031.59;5011210;28;20068;-90
2022/06/18 08:37:18;;;;;;;6.78;5.30;;;;;;;22.34;43.70;94025.63;4979267;28;20037;-92
2022/06/18 08:39:43;;;;;;;9.40;4.75;;;;;;;22.37;43.84;94019.06;5011807;28;20041;-93
2022/06/18 08:42:33;;;;;;;21.55;6.72;;;;;;;22.37;43.85;94021.84;4994734;28;20049;-92
2022/06/18 08:45:21;;;;;;;80.95;16.42;;;;;;;22.34;43.88;94012.59;5027958;28;20424;-92
2022/06/18 08:47:56;;;;;;;26.65;8.32;;;;;;;22.32;43.53;94020.63;5005578;28;20072;-91
2022/06/18 08:50:25;;;;;;;25.67;6.95;;;;;;;22.36;42.91;94014.84;5010328;28;20048;-92
2022/06/18 08:53:12;;;;;;;14.73;4.75;;;;;;;22.33;43.27;94013.13;5029273;28;20084;-92
2022/06/18 08:55:58;;;;;;;20.35;5.40;;;;;;;22.32;42.78;94017.13;4995694;28;20041;-91
2022/06/18 08:58:37;;;;;;;18.58;6.60;;;;;;;22.26;43.18;94006.22;4994785;28;20041;-92
2022/06/18 09:01:16;;;;;;;16.00;5.67;;;;;;;22.31;43.06;94016.38;4991452;28;20045;-92
2022/06/18 09:04:04;;;;;;;15.65;5.50;;;;;;;22.30;42.82;94008.69;4977894;28;20045;-92
2022/06/18 09:06:29;;;;;;;14.98;6.63;;;;;;;22.32;43.13;94008.88;4996444;28;20033;-92
2022/06/18 09:09:26;;;;;;;14.07;6.13;;;;;;;22.32;43.03;94006.84;5030278;28;20030;-92
2022/06/18 09:12:01;;;;;;;11.35;6.20;;;;;;;22.33;42.83;94013.84;5011526;28;20094;-92
2022/06/18 09:14:32;;;;;;;63.20;15.48;;;;;;;22.30;43.35;94011.44;4998385;28;20029;-92
2022/06/18 09:17:00;;;;;;;;;;;;;;;22.31;43.59;94015.66;4998863;28;20033;-92
2022/06/18 09:19:26;;;;;;;25.05;13.38;;;;;;;22.33;43.31;94005.59;4997957;28;20000;-91
2022/06/18 09:21:53;;;;;;;42.50;23.50;;;;;;;22.30;43.74;94009.41;4982661;28;20511;-92
2022/06/18 09:24:22;;;;;;;24.95;13.95;;;;;;;22.36;43.48;94004.56;4984560;28;20041;-92
2022/06/18 09:26:50;;;;;;;23.27;11.55;;;;;;;22.34;43.54;93998.81;5014844;28;20038;-91
2022/06/18 09:29:22;;;;;;;22.80;14.00;;;;;;;22.32;43.50;94000.59;4998418;28;20119;-91
2022/06/18 09:31:55;;;;;;;27.60;15.75;;;;;;;22.35;43.18;94005.81;5014658;28;20103;-91
2022/06/18 09:34:24;;;;;;;42.95;24.40;;;;;;;22.38;42.85;93995.78;4994792;28;20053;-92
2022/06/18 09:37:03;;;;;;;45.58;27.58;;;;;;;22.38;43.16;93990.25;5030162;28;20045;-93
2022/06/18 09:39:35;;;;;;;45.22;27.52;;;;;;;22.39;43.05;94000.75;5000034;28;20064;-92
2022/06/18 09:42:08;;;;;;;55.75;24.15;;;;;;;22.39;43.05;93997.25;5015063;28;20058;-91
2022/06/18 09:44:49;;;;;;;48.10;17.88;;;;;;;22.39;42.74;94000.00;4982355;28;20234;-91
2022/06/18 09:47:22;;;;;;;31.73;14.93;;;;;;;22.40;42.80;93998.75;5029950;28;20377;-92
2022/06/18 09:49:48;;;;;;;28.13;14.18;;;;;;;22.38;42.85;93998.53;5014619;28;20124;-91
2022/06/18 09:52:20;;;;;;;25.48;13.45;;;;;;;22.40;42.70;93993.97;5014458;28;20034;-92
2022/06/18 09:54:54;;;;;;;18.00;11.25;;;;;;;22.41;42.57;93995.47;5017310;28;20053;-91
2022/06/18 09:57:21;;;;;;;13.68;7.95;;;;;;;22.39;42.84;93987.00;5016087;28;20117;-91
2022/06/18 09:59:55;;;;;;;13.95;8.02;;;;;;;22.46;42.47;93983.63;5015486;28;20102;-90
2022/06/18 10:02:26;;;;;;;11.77;6.97;;;;;;;22.42;43.14;93990.72;4998819;28;20076;-92
2022/06/18 10:07:39;;;;;;;13.23;6.28;;;;;;;22.42;42.95;93987.97;5003341;28;20095;-91
2022/06/18 10:10:09;;;;;;;9.65;6.32;;;;;;;22.48;42.27;93994.13;4982086;28;20033;-92
2022/06/18 10:12:36;;;;;;;9.80;5.50;;;;;;;22.47;42.28;93978.88;4982036;28;20057;-91
2022/06/18 10:15:05;;;;;;;13.18;5.55;;;;;;;22.45;42.12;93973.13;4997876;28;20041;-92
2022/06/18 10:17:33;;;;;;;5.70;4.20;;;;;;;22.43;42.42;93978.44;4997631;28;20277;-91
2022/06/18 10:20:22;;;;;;;11.40;5.40;;;;;;;22.41;42.76;93978.19;5030849;28;20037;-93
2022/06/18 10:22:58;;;;;;;24.75;7.57;;;;;;;22.39;42.56;93980.72;4999503;28;20044;-93
2022/06/18 10:25:56;;;;;;;14.32;7.78;;;;;;;22.45;42.55;93971.13;5024562;28;20056;-91
2022/06/18 10:28:21;;;;;;;10.50;6.20;;;;;;;22.43;43.01;93970.16;5013445;28;20048;-92
2022/06/18 10:31:14;;;;;;;14.07;6.40;;;;;;;22.44;43.13;93971.66;5031598;28;20045;-92
2022/06/18 10:33:45;;;;;;;16.75;5.40;;;;;;;22.45;44.03;93964.88;5013760;28;20041;-92
2022/06/18 10:36:24;;;;;;;12.13;6.95;;;;;;;22.46;43.51;93961.59;5009678;28;20133;-90
2022/06/18 10:39:00;;;;;;;11.77;5.85;;;;;;;22.46;43.89;93956.09;4980491;28;20041;-90
2022/06/18 10:41:29;;;;;;;9.88;5.10;;;;;;;22.49;43.78;93959.81;5013174;28;20111;-91
2022/06/18 10:44:32;;;;;;;7.88;6.10;;;;;;;22.49;44.09;93955.03;5013281;28;20041;-91
2022/06/18 10:47:06;;;;;;;8.10;5.88;;;;;;;22.46;44.61;93953.31;5030001;28;20049;-92
2022/06/18 10:49:32;;;;;;;6.43;4.75;;;;;;;22.53;43.98;93951.94;4996767;28;20046;-92
2022/06/18 10:51:57;;;;;;;8.02;5.30;;;;;;;22.54;43.55;93947.94;5016364;28;20094;-91
2022/06/18 10:54:33;;;;;;;6.35;4.63;;;;;;;22.57;43.74;93941.38;5016335;28;20483;-92
2022/06/18 10:56:59;;;;;;;5.63;5.00;;;;;;;22.52;43.54;93937.44;4996287;28;20140;-91
2022/06/18 10:59:38;;;;;;;7.30;6.15;;;;;;;22.51;43.94;93944.25;4997002;28;20063;-93
2022/06/18 11:02:23;;;;;;;6.45;5.40;;;;;;;22.53;43.75;93949.94;4990530;28;20337;-92
2022/06/18 11:04:57;;;;;;;7.90;5.90;;;;;;;22.53;43.85;93936.16;5004792;28;20049;-94
2022/06/18 11:07:25;;;;;;;9.25;5.05;;;;;;;22.54;43.63;93923.88;5015589;28;20048;-93
2022/06/18 11:10:04;;;;;;;8.38;5.72;;;;;;;22.52;43.64;93931.91;4981204;28;20045;-92
2022/06/18 11:12:40;;;;;;;10.30;7.15;;;;;;;22.49;43.90;93937.75;4978813;28;20038;-94
2022/06/18 11:15:34;;;;;;;8.02;5.70;;;;;;;22.50;43.49;93923.47;4999596;28;20479;-94
2022/06/18 11:18:11;;;;;;;7.53;6.05;;;;;;;22.54;43.49;93925.88;4992501;28;20391;-94
2022/06/18 11:20:37;;;;;;;5.78;5.25;;;;;;;22.53;42.99;93916.13;4997446;28;20029;-93
2022/06/18 11:23:11;;;;;;;7.43;6.15;;;;;;;22.54;42.83;93914.88;5023899;28;20037;-95
2022/06/18 11:25:39;;;;;;;6.78;6.10;;;;;;;22.53;43.09;93924.41;4992929;28;20116;-92
2022/06/18 11:28:12;;;;;;;6.38;5.82;;;;;;;22.51;42.89;93911.19;5027616;28;20402;-92
2022/06/18 11:30:42;;;;;;;4.57;4.15;;;;;;;22.49;42.52;93907.47;4996247;28;20528;-94
2022/06/18 11:33:19;;;;;;;6.45;4.55;;;;;;;22.52;42.78;93920.91;4978952;28;20045;-93
2022/06/18 11:35:47;;;;;;;8.05;5.38;;;;;;;22.57;42.73;93919.34;4996021;28;20037;-92
2022/06/18 11:38:30;;;;;;;6.72;4.90;;;;;;;22.52;42.40;93900.88;4979112;28;20038;-92
2022/06/18 11:40:58;;;;;;;5.70;5.10;;;;;;;22.53;42.30;93905.84;4996113;28;20515;-92
2022/06/18 11:43:40;;;;;;;8.02;5.60;;;;;;;22.52;42.74;93901.63;4987221;28;20038;-93
2022/06/18 11:46:11;;;;;;;5.60;5.10;;;;;;;22.58;43.27;93896.00;5008073;28;20038;-94
2022/06/18 11:49:01;;;;;;;6.95;5.70;;;;;;;22.54;43.16;93899.06;4976582;28;20493;-92